createdAt,value
2023-08-12T00:00:24.829Z,10
2023-08-12T00:06:17.612Z,12
2023-08-12T00:11:24.387Z,12
2023-08-12T00:16:24.758Z,10
2023-08-12T00:22:17.593Z,12
2023-08-12T00:27:17.606Z,11
2023-08-12T00:32:24.779Z,11
2023-08-12T00:37:26.085Z,10
2023-08-12T00:43:17.610Z,9
2023-08-12T00:48:24.961Z,9
2023-08-12T00:53:25.093Z,9
2023-08-12T00:59:17.538Z,10
2023-08-12T01:04:17.667Z,9
2023-08-12T01:09:17.570Z,9
2023-08-12T01:14:17.557Z,8
2023-08-12T01:19:24.351Z,8
2023-08-12T01:24:24.508Z,7
2023-08-12T01:29:25.269Z,7
2023-08-12T01:34:26.799Z,7
2023-08-12T01:40:17.601Z,6
2023-08-12T01:45:24.380Z,5
2023-08-12T01:50:24.714Z,7
2023-08-12T01:55:25.060Z,6
2023-08-12T02:01:17.596Z,6
2023-08-12T02:06:25.078Z,7
2023-08-12T02:12:17.597Z,6
2023-08-12T02:17:24.454Z,8
2023-08-12T02:23:17.597Z,8
2023-08-12T02:28:24.810Z,8
2023-08-12T02:33:25.157Z,7
2023-08-12T02:44:24.957Z,7
2023-08-12T02:49:25.677Z,7
2023-08-12T02:55:17.640Z,8
2023-08-12T03:00:24.508Z,7
2023-08-12T03:05:25.367Z,8
2023-08-12T03:10:26.594Z,8
2023-08-12T03:16:17.700Z,8
2023-08-12T03:21:25.226Z,7
2023-08-12T03:26:25.281Z,7
2023-08-12T03:32:17.626Z,6
2023-08-12T03:37:24.579Z,8
2023-08-12T03:43:17.657Z,9
2023-08-12T03:48:24.410Z,9
2023-08-12T03:54:17.609Z,9
2023-08-12T04:04:17.630Z,9
2023-08-12T04:09:24.411Z,9
2023-08-12T04:14:24.424Z,9
2023-08-12T04:19:24.536Z,9
2023-08-12T04:25:17.621Z,8
2023-08-12T04:30:17.630Z,8
2023-08-12T04:35:17.693Z,8
2023-08-12T04:40:24.937Z,7
2023-08-12T04:46:17.641Z,6
2023-08-12T04:51:25.100Z,6
2023-08-12T04:57:17.611Z,5
2023-08-12T05:02:17.754Z,5
2023-08-12T05:07:17.669Z,5
2023-08-12T05:12:24.938Z,6
2023-08-12T05:18:17.639Z,6
2023-08-12T05:23:25.084Z,6
2023-08-12T05:28:24.878Z,5
2023-08-12T05:34:17.705Z,4
2023-08-12T05:39:24.790Z,4
2023-08-12T05:44:25.104Z,4
2023-08-12T05:49:25.186Z,4
2023-08-12T05:55:17.648Z,4
2023-08-12T06:00:17.669Z,4
2023-08-12T06:05:17.701Z,4
2023-08-12T06:10:24.825Z,4
2023-08-12T06:15:24.977Z,5
2023-08-12T06:20:25.140Z,4
2023-08-12T06:26:17.658Z,6
2023-08-12T06:31:17.746Z,3
2023-08-12T06:36:24.563Z,4
2023-08-12T06:41:24.963Z,3
2023-08-12T06:46:25.000Z,3
2023-08-12T06:52:17.728Z,3
2023-08-12T06:57:24.459Z,3
2023-08-12T07:02:24.770Z,3
2023-08-12T07:07:25.150Z,3
2023-08-12T07:13:17.720Z,3
2023-08-12T07:18:17.744Z,2
2023-08-12T07:23:24.606Z,2
2023-08-12T07:29:17.812Z,2
2023-08-12T07:34:26.076Z,2
2023-08-12T07:40:17.761Z,2
2023-08-12T07:45:25.067Z,2
2023-08-12T07:51:17.817Z,2
2023-08-12T07:56:24.919Z,2
2023-08-12T08:02:17.788Z,3
2023-08-12T08:07:17.774Z,2
2023-08-12T08:12:17.750Z,2
2023-08-12T08:17:17.788Z,2
2023-08-12T08:22:24.488Z,2
2023-08-12T08:27:25.291Z,2
2023-08-12T08:33:17.759Z,2
2023-08-12T08:38:24.485Z,2
2023-08-12T08:43:24.516Z,3
2023-08-12T08:49:17.744Z,2
2023-08-12T08:54:17.766Z,2
2023-08-12T08:59:17.780Z,2
2023-08-12T09:04:17.790Z,2
2023-08-12T09:14:24.584Z,2
2023-08-12T09:20:17.803Z,2
2023-08-12T09:25:17.816Z,2
2023-08-12T09:30:24.585Z,2
2023-08-12T09:36:17.774Z,2
2023-08-12T09:41:24.534Z,2
2023-08-12T09:46:24.959Z,2
2023-08-12T09:51:25.018Z,2
2023-08-12T09:56:25.089Z,2
2023-08-12T10:01:25.405Z,2
2023-08-12T10:07:17.738Z,2
2023-08-12T10:12:19.625Z,2
2023-08-12T10:17:41.193Z,2
2023-08-12T10:22:25.074Z,2
2023-08-12T10:28:17.849Z,2
2023-08-12T10:33:24.531Z,2
2023-08-12T10:38:24.608Z,15
2023-08-12T10:43:25.326Z,2
2023-08-12T10:48:26.381Z,2
2023-08-12T10:59:24.557Z,2
2023-08-12T11:04:24.783Z,2
2023-08-12T11:10:17.799Z,2
2023-08-12T11:15:17.775Z,2
2023-08-12T11:20:17.820Z,2
2023-08-12T11:25:24.618Z,2
2023-08-12T11:30:25.061Z,2
2023-08-12T11:35:25.150Z,2
2023-08-12T11:41:17.786Z,4
2023-08-12T11:46:24.830Z,35
2023-08-12T11:51:25.528Z,12
2023-08-12T11:57:17.778Z,38
2023-08-12T12:02:17.806Z,17
2023-08-12T12:07:17.831Z,10
2023-08-12T12:12:24.636Z,6
2023-08-12T12:18:17.838Z,7
2023-08-12T12:23:24.656Z,9
2023-08-12T12:39:25.066Z,4
2023-08-12T12:44:25.097Z,3
2023-08-12T12:50:17.862Z,5
2023-08-12T12:55:24.587Z,3
2023-08-12T13:00:24.641Z,2
2023-08-12T13:06:17.879Z,3
2023-08-12T13:11:17.820Z,4
2023-08-12T13:16:25.591Z,2
2023-08-12T13:22:17.874Z,6
2023-08-12T13:27:25.051Z,4
2023-08-12T13:32:26.188Z,2
2023-08-12T13:38:17.874Z,1
2023-08-12T13:43:25.109Z,6
2023-08-12T13:49:17.821Z,18
2023-08-12T13:59:24.649Z,8
2023-08-12T14:05:17.949Z,3
2023-08-12T14:10:25.107Z,3
2023-08-12T14:16:17.856Z,2
2023-08-12T14:21:17.841Z,2
2023-08-12T14:31:17.910Z,1
2023-08-12T14:41:25.495Z,1
2023-08-12T14:47:17.845Z,3
2023-08-12T14:52:17.924Z,3
2023-08-12T14:57:17.939Z,1
2023-08-12T15:02:24.875Z,2
2023-08-12T15:08:17.887Z,2
2023-08-12T15:13:17.905Z,2
2023-08-12T15:18:24.723Z,2
2023-08-12T15:23:25.156Z,2
2023-08-12T15:29:17.940Z,1
2023-08-12T15:34:25.432Z,2
2023-08-12T15:40:17.945Z,1
2023-08-12T15:45:24.704Z,2
2023-08-12T15:50:24.727Z,1
2023-08-12T15:55:25.102Z,2
2023-08-12T16:00:25.271Z,1
2023-08-12T16:06:17.936Z,1
2023-08-12T16:11:24.730Z,1
2023-08-12T16:16:25.728Z,1
2023-08-12T16:22:17.878Z,1
2023-08-12T16:27:17.913Z,1
2023-08-12T16:32:24.996Z,1
2023-08-12T16:37:25.452Z,1
2023-08-12T16:43:17.930Z,1
2023-08-12T16:48:17.991Z,1
2023-08-12T16:53:25.344Z,2
2023-08-12T16:58:25.532Z,1
2023-08-12T17:04:18.133Z,1
2023-08-12T17:09:24.831Z,1
2023-08-12T17:14:31.764Z,1
2023-08-12T17:20:17.915Z,1
2023-08-12T17:25:17.956Z,1
2023-08-12T17:30:17.991Z,1
2023-08-12T17:35:25.390Z,1
2023-08-12T17:41:17.985Z,1
2023-08-12T17:46:23.657Z,1
2023-08-12T17:51:24.709Z,1
2023-08-12T17:56:25.390Z,1
2023-08-12T18:02:17.914Z,1
2023-08-12T18:07:17.998Z,1
2023-08-12T18:12:25.066Z,1
2023-08-12T18:18:18.019Z,1
2023-08-12T18:23:18.010Z,1
2023-08-12T18:28:24.707Z,1
2023-08-12T18:33:25.512Z,1
2023-08-12T18:39:17.999Z,1
2023-08-12T18:44:24.739Z,2
2023-08-12T18:55:17.943Z,1
2023-08-12T19:00:24.749Z,1
2023-08-12T19:05:24.828Z,1
2023-08-12T19:11:17.942Z,1
2023-08-12T19:16:18.046Z,1
2023-08-12T19:21:25.315Z,1
2023-08-12T19:27:17.973Z,1
2023-08-12T19:32:25.412Z,2
2023-08-12T19:37:25.580Z,2
2023-08-12T19:43:17.956Z,1
2023-08-12T19:48:17.967Z,1
2023-08-12T19:53:17.962Z,1
2023-08-12T19:58:17.962Z,1
2023-08-12T20:03:24.890Z,2
2023-08-12T20:08:24.848Z,2
2023-08-12T20:13:25.065Z,2
2023-08-12T20:18:25.530Z,2
2023-08-12T20:24:17.967Z,2
2023-08-12T20:29:17.987Z,2
2023-08-12T20:34:25.358Z,2
2023-08-12T20:40:17.989Z,2
2023-08-12T20:45:18.008Z,2
2023-08-12T20:50:24.836Z,2
2023-08-12T20:56:17.964Z,1
2023-08-12T21:01:18.094Z,2
2023-08-12T21:06:24.814Z,2
2023-08-12T21:12:18.016Z,2
2023-08-12T21:17:18.046Z,1
2023-08-12T21:22:24.820Z,2
2023-08-12T21:27:25.226Z,2
2023-08-12T21:32:25.404Z,2
2023-08-12T21:38:17.996Z,2
2023-08-12T21:43:18.036Z,2
2023-08-12T21:48:25.322Z,2
2023-08-12T21:54:18.045Z,2
2023-08-12T21:59:24.777Z,1
2023-08-12T22:04:25.483Z,2
2023-08-12T22:10:18.047Z,2
2023-08-12T22:15:24.928Z,2
2023-08-12T22:20:25.614Z,1
2023-08-12T22:26:18.098Z,2
2023-08-12T22:31:25.557Z,1
2023-08-12T22:37:18.001Z,2
2023-08-12T22:42:18.028Z,2
2023-08-12T22:47:24.901Z,2
2023-08-12T22:52:26.542Z,2
2023-08-12T22:58:18.010Z,3
2023-08-12T23:03:25.676Z,3
2023-08-12T23:09:18.036Z,3
2023-08-12T23:14:24.841Z,3
2023-08-12T23:20:18.103Z,3
2023-08-12T23:25:24.894Z,3
2023-08-12T23:31:18.092Z,3
2023-08-12T23:36:18.055Z,2
2023-08-12T23:41:24.824Z,2
2023-08-12T23:46:25.280Z,2
2023-08-12T23:52:18.094Z,3
2023-08-12T23:57:18.100Z,2
